createdAt,value
2022-10-06T00:02:06.804Z,93.82
2022-10-06T00:05:47.337Z,92.67
2022-10-06T00:12:45.945Z,92.06
2022-10-06T00:16:25.456Z,91.54
2022-10-06T00:23:24.043Z,91.25
2022-10-06T00:27:03.659Z,90.87
2022-10-06T00:34:02.305Z,90.28
2022-10-06T00:37:41.674Z,89.93
2022-10-06T00:44:40.268Z,89.64
2022-10-06T00:48:21.974Z,87.99
2022-10-06T00:53:41.449Z,86.96
2022-10-06T00:59:00.539Z,85.56
2022-10-06T01:04:19.894Z,84.57
2022-10-06T01:09:37.880Z,84.22
2022-10-06T01:16:36.478Z,83.83
2022-10-06T01:20:18.398Z,83.26
2022-10-06T01:28:51.433Z,82.62
2022-10-06T01:30:55.698Z,82.03
2022-10-06T01:36:40.541Z,81.66
2022-10-06T01:41:59.977Z,81.61
2022-10-06T01:47:20.182Z,81.61
2022-10-06T01:53:54.363Z,81.71
2022-10-06T01:57:59.465Z,81.54
2022-10-06T02:03:17.294Z,81.35
2022-10-06T02:10:15.879Z,80.32
2022-10-06T02:13:55.084Z,80.05
2022-10-06T02:19:14.284Z,79.69
2022-10-06T02:24:33.723Z,79.57
2022-10-06T02:29:52.433Z,79.69
2022-10-06T02:35:10.578Z,80.17
2022-10-06T02:40:30.734Z,82.05
2022-10-06T02:45:49.759Z,81.01
2022-10-06T02:51:08.260Z,83.51
2022-10-06T02:56:27.085Z,83.13
2022-10-06T03:01:46.464Z,82.4
2022-10-06T03:07:06.493Z,82.59
2022-10-06T03:13:40.640Z,83.37
2022-10-06T03:17:56.055Z,84.12
2022-10-06T03:23:04.922Z,84.47
2022-10-06T03:28:23.689Z,84.49
2022-10-06T03:33:42.372Z,84.55
2022-10-06T03:39:02.571Z,84.6
2022-10-06T03:44:20.742Z,84.77
2022-10-06T03:49:40.619Z,85.46
2022-10-06T03:55:00.428Z,85.98
2022-10-06T04:00:19.355Z,85.96
2022-10-06T04:05:38.972Z,86.27
2022-10-06T04:10:58.093Z,86.63
2022-10-06T04:17:32.267Z,86.95
2022-10-06T04:21:36.776Z,86.84
2022-10-06T04:26:56.181Z,87.06
2022-10-06T04:33:30.310Z,86.89
2022-10-06T04:37:34.243Z,86.31
2022-10-06T04:44:32.825Z,87.04
2022-10-06T04:48:12.885Z,86.93
2022-10-06T04:55:11.419Z,86.82
2022-10-06T04:58:49.847Z,86.91
2022-10-06T05:04:09.775Z,86.72
2022-10-06T05:09:29.174Z,87.09
2022-10-06T05:14:47.936Z,87.13
2022-10-06T05:21:22.090Z,87.63
2022-10-06T05:25:26.909Z,87.89
2022-10-06T05:30:45.666Z,87.71
2022-10-06T05:36:03.283Z,87.55
2022-10-06T05:41:22.620Z,87.6
2022-10-06T05:46:41.019Z,87.43
2022-10-06T05:52:00.521Z,87.39
2022-10-06T05:57:20.290Z,88.88
2022-10-06T06:02:39.049Z,90.57
2022-10-06T06:07:59.185Z,91.84
2022-10-06T06:13:17.973Z,93.05
2022-10-06T06:18:37.408Z,93.39
2022-10-06T06:23:57.482Z,93.96
2022-10-06T06:29:16.238Z,94.63
2022-10-06T06:34:34.470Z,95.27
2022-10-06T06:39:54.596Z,95.56
2022-10-06T06:45:12.736Z,95.99
2022-10-06T06:50:33.086Z,96.11
2022-10-06T06:57:07.262Z,95.71
2022-10-06T07:06:32.378Z,95.53
2022-10-06T07:11:50.753Z,95
2022-10-06T07:17:10.176Z,94.56
2022-10-06T07:23:44.356Z,94.34
2022-10-06T07:27:59.742Z,93.31
2022-10-06T07:33:07.235Z,92.73
2022-10-06T07:39:41.421Z,92.72
2022-10-06T07:43:46.797Z,90.73
2022-10-06T07:49:05.423Z,89.82
2022-10-06T07:54:27.325Z,86.69
2022-10-06T07:59:44.327Z,86.25
2022-10-06T08:05:03.910Z,85.75
2022-10-06T08:10:22.660Z,84.42
2022-10-06T08:15:41.665Z,80.01
2022-10-06T08:24:14.752Z,78.08
2022-10-06T08:26:20.153Z,79.16
2022-10-06T08:37:15.785Z,77.42
2022-10-06T08:42:17.748Z,71.71
2022-10-06T08:47:36.761Z,71.71
2022-10-06T08:52:55.041Z,71.69
2022-10-06T08:58:23.504Z,71.01
2022-10-06T09:03:34.207Z,64.24
2022-10-06T09:08:52.900Z,61.57
2022-10-06T09:14:12.398Z,60.37
2022-10-06T09:56:46.386Z,63.16
2022-10-06T10:02:05.698Z,62.98
2022-10-06T10:09:04.272Z,59.43
2022-10-06T10:13:20.797Z,57.54
2022-10-06T10:18:03.943Z,56.21
2022-10-06T10:23:25.033Z,54
2022-10-06T10:28:42.465Z,55.56
2022-10-06T10:34:12.359Z,60.81
2022-10-06T10:39:20.165Z,58.19
2022-10-06T10:44:38.922Z,59.43
2022-10-06T10:49:57.829Z,55.07
2022-10-06T10:58:30.832Z,55.42
2022-10-06T11:02:47.396Z,54.42
2022-10-06T11:07:03.945Z,55
2022-10-06T11:11:15.234Z,54.71
2022-10-06T11:16:34.389Z,53.82
2022-10-06T11:21:51.296Z,59.42
2022-10-06T11:27:10.837Z,56.37
2022-10-06T11:32:30.421Z,55.96
2022-10-06T11:37:50.542Z,54.57
2022-10-06T11:43:09.015Z,56.36
2022-10-06T11:48:28.872Z,53.1
2022-10-06T11:55:03.031Z,54.03
2022-10-06T11:59:08.501Z,58.2
2022-10-06T12:04:27.690Z,57.11
2022-10-06T12:09:51.106Z,53.92
2022-10-06T12:16:54.801Z,54.19
2022-10-06T12:20:24.052Z,57.59
2022-10-06T12:27:24.951Z,57.21
2022-10-06T12:31:02.540Z,59.83
2022-10-06T12:36:21.369Z,59.7
2022-10-06T12:41:40.304Z,55.28
2022-10-06T12:46:59.260Z,50.85
2022-10-06T12:52:18.305Z,49.43
2022-10-06T12:57:37.637Z,45.77
2022-10-06T13:02:56.870Z,46.76
2022-10-06T13:08:15.750Z,46.53
2022-10-06T13:13:34.864Z,47.4
2022-10-06T13:18:53.638Z,47.02
2022-10-06T13:24:12.849Z,45.53
2022-10-06T13:29:31.468Z,45.05
2022-10-06T13:34:51.055Z,45.78
2022-10-06T13:40:16.664Z,45.73
2022-10-06T13:45:30.682Z,43.44
2022-10-06T13:50:49.355Z,44.78
2022-10-06T13:56:09.018Z,46.16
2022-10-06T14:01:27.889Z,46.54
2022-10-06T14:06:47.519Z,47.19
2022-10-06T14:12:06.412Z,49.01
2022-10-06T14:17:25.590Z,48.42
2022-10-06T14:22:45.691Z,45.78
2022-10-06T14:28:03.824Z,46.77
2022-10-06T14:33:23.979Z,45.84
2022-10-06T14:38:42.341Z,46.96
2022-10-06T14:44:01.452Z,48.26
2022-10-06T14:49:21.260Z,47.54
2022-10-06T14:54:39.463Z,47.77
2022-10-06T14:59:58.451Z,47.69
2022-10-06T15:05:17.901Z,47.94
2022-10-06T15:10:37.149Z,47.92
2022-10-06T15:17:11.309Z,47.54
2022-10-06T15:21:16.518Z,48.57
2022-10-06T15:26:35.589Z,48.13
2022-10-06T15:31:53.222Z,48.85
2022-10-06T15:38:51.739Z,50.14
2022-10-06T15:47:51.490Z,50.27
2022-10-06T15:53:10.859Z,52.13
2022-10-06T15:58:30.497Z,53.52
2022-10-06T16:03:48.253Z,54.05
2022-10-06T16:09:07.083Z,56.44
2022-10-06T16:14:26.582Z,57.79
2022-10-06T16:19:45.684Z,58.65
2022-10-06T16:26:19.821Z,62.28
2022-10-06T16:35:45.168Z,66.87
2022-10-06T16:41:03.373Z,68.48
2022-10-06T16:48:01.967Z,69.19
2022-10-06T16:52:18.504Z,69.62
2022-10-06T16:57:00.612Z,69.89
2022-10-06T17:03:59.269Z,69.49
2022-10-06T17:07:40.310Z,70.61
2022-10-06T17:16:13.463Z,71.98
2022-10-06T17:28:56.989Z,77.26
2022-10-06T17:34:19.749Z,77.92
2022-10-06T17:41:14.008Z,78.96
2022-10-06T17:44:53.852Z,78.71
2022-10-06T17:50:12.560Z,80.11
2022-10-06T17:55:32.250Z,81.37
2022-10-06T18:00:51.826Z,81.98
2022-10-06T18:06:10.686Z,83.45
2022-10-06T18:12:44.865Z,85.26
2022-10-06T18:16:52.204Z,86.01
2022-10-06T18:23:47.735Z,86.93
2022-10-06T18:38:07.155Z,87.59
2022-10-06T18:43:26.157Z,88.42
2022-10-06T18:48:45.584Z,89.34
2022-10-06T18:59:24.767Z,90.29
2022-10-06T19:04:43.821Z,90.55
2022-10-06T19:10:03.534Z,90.64
2022-10-06T19:16:37.763Z,91.07
2022-10-06T19:20:41.414Z,91.62
2022-10-06T19:26:00.312Z,92.12
2022-10-06T19:31:19.980Z,92.67
2022-10-06T19:37:54.104Z,93.23
2022-10-06T19:41:58.612Z,94.01
2022-10-06T19:47:17.813Z,94.17
2022-10-06T19:53:13.302Z,94.2
2022-10-06T19:58:32.023Z,94.59
2022-10-06T20:03:51.886Z,95.3
2022-10-06T20:10:26.028Z,95.64
2022-10-06T20:14:30.473Z,96.02
2022-10-06T20:19:52.897Z,96.27
2022-10-06T20:25:09.266Z,96.42
2022-10-06T20:30:27.955Z,96.64
2022-10-06T20:37:02.138Z,96.77
2022-10-06T20:41:07.757Z,97.05
2022-10-06T20:46:37.315Z,97.26
2022-10-06T20:55:00.278Z,97.56
2022-10-06T20:57:05.961Z,97.66
2022-10-06T21:07:45.071Z,97.97
2022-10-06T21:13:04.390Z,98.12
2022-10-06T21:21:37.462Z,98.15
2022-10-06T21:25:52.823Z,98.17
2022-10-06T21:29:01.193Z,98.41
2022-10-06T21:34:20.422Z,98.42
2022-10-06T21:39:39.369Z,98.41
2022-10-06T21:46:38.009Z,98.62
2022-10-06T21:50:19.230Z,98.72
2022-10-06T21:55:38.249Z,98.67
2022-10-06T22:00:58.259Z,98.74
2022-10-06T22:09:30.914Z,98.8
2022-10-06T22:13:46.359Z,98.78
2022-10-06T22:16:54.533Z,98.95
2022-10-06T22:23:28.707Z,99.04
2022-10-06T22:32:54.044Z,99.05
2022-10-06T22:41:27.129Z,99.19
2022-10-06T22:45:42.543Z,99.18
2022-10-06T22:54:09.469Z,99.47
2022-10-06T22:59:28.562Z,99.51
2022-10-06T23:04:48.241Z,99.5
2022-10-06T23:10:07.790Z,99.53
2022-10-06T23:15:26.742Z,99.62
2022-10-06T23:20:46.486Z,99.49
2022-10-06T23:26:05.059Z,99.71
2022-10-06T23:31:25.469Z,99.71
2022-10-06T23:36:44.657Z,99.84
2022-10-06T23:42:03.595Z,99.92
2022-10-06T23:47:22.912Z,99.99
2022-10-06T23:52:42.079Z,99.99
2022-10-06T23:58:00.954Z,99.99
